Time;durP1;ratioP1;P1;durP2;ratioP2;P2;SDS_P1;SDS_P2;PMS_P1;PMS_P2;Temp;Humidity;BMP_temperature;BMP_pressure;BME280_temperature;BME280_humidity;BME280_pressure;Samples;Min_cycle;Max_cycle;Signal;HPM_P1;HPM_P2
2021/05/26 00:02:24;;;;;;;3.63;1.90;;;10.30;99.90;;;;;;4937082;29;20521;-82
2021/05/26 00:04:50;;;;;;;6.20;2.07;;;10.30;99.90;;;;;;4936654;29;20174;-82
2021/05/26 00:07:15;;;;;;;2.80;1.83;;;10.30;99.90;;;;;;4937080;29;20178;-81
2021/05/26 00:09:41;;;;;;;3.00;2.67;;;10.30;99.90;;;;;;4937016;29;20222;-82
2021/05/26 00:12:07;;;;;;;3.17;2.20;;;10.30;99.90;;;;;;4936851;29;20563;-81
2021/05/26 00:14:33;;;;;;;3.00;1.70;;;10.40;99.90;;;;;;4936849;29;20174;-82
2021/05/26 00:16:58;;;;;;;2.00;1.80;;;10.40;99.90;;;;;;4919655;29;20565;-81
2021/05/26 00:19:24;;;;;;;5.10;2.90;;;10.40;99.90;;;;;;4936493;29;20876;-82
2021/05/26 00:21:50;;;;;;;4.50;2.73;;;10.40;99.90;;;;;;4936779;29;20207;-82
2021/05/26 00:24:15;;;;;;;2.67;2.13;;;10.40;99.90;;;;;;4936735;29;20178;-81
2021/05/26 00:26:43;;;;;;;2.63;1.87;;;10.40;99.90;;;;;;4936587;29;20232;-82
2021/05/26 00:29:09;;;;;;;2.93;2.23;;;10.40;99.90;;;;;;4936645;29;20170;-82
2021/05/26 00:31:34;;;;;;;3.03;2.50;;;10.40;99.90;;;;;;4919515;29;20832;-81
2021/05/26 00:34:00;;;;;;;2.97;2.60;;;10.40;99.90;;;;;;4935998;29;20711;-81
2021/05/26 00:36:26;;;;;;;3.13;2.00;;;10.40;99.90;;;;;;4936416;29;20220;-81
2021/05/26 00:38:51;;;;;;;5.17;2.10;;;10.40;99.90;;;;;;4936393;29;20173;-82
2021/05/26 00:41:17;;;;;;;7.23;2.03;;;10.40;99.90;;;;;;4936406;29;20241;-82
2021/05/26 00:43:42;;;;;;;3.57;2.27;;;10.40;99.90;;;;;;4936045;29;20183;-82
2021/05/26 00:46:08;;;;;;;3.17;2.43;;;10.40;99.90;;;;;;4936329;29;20171;-82
2021/05/26 00:48:34;;;;;;;3.80;2.10;;;10.40;99.90;;;;;;4935924;29;20171;-82
2021/05/26 00:50:59;;;;;;;4.97;2.23;;;10.40;99.90;;;;;;4936253;29;20203;-82
2021/05/26 00:53:27;;;;;;;2.93;1.53;;;10.40;99.90;;;;;;4936319;29;20225;-82
2021/05/26 00:55:53;;;;;;;3.67;2.20;;;10.40;99.90;;;;;;4936191;29;20257;-82
2021/05/26 00:58:19;;;;;;;3.20;2.57;;;10.40;99.90;;;;;;4936164;29;20986;-82
2021/05/26 01:00:45;;;;;;;4.23;2.53;;;10.40;99.90;;;;;;4936047;29;20181;-82
2021/05/26 01:03:11;;;;;;;4.70;2.80;;;10.10;99.90;;;;;;4935704;29;20426;-83
2021/05/26 01:05:37;;;;;;;3.33;2.70;;;10.40;99.90;;;;;;4936060;29;20233;-83
2021/05/26 01:08:04;;;;;;;3.27;2.97;;;10.30;99.90;;;;;;4936037;29;20442;-83
2021/05/26 01:10:31;;;;;;;3.60;2.87;;;10.40;99.90;;;;;;4935885;29;20864;-83
2021/05/26 01:12:57;;;;;;;3.97;3.10;;;10.40;99.90;;;;;;4935867;29;20423;-84
2021/05/26 01:15:24;;;;;;;3.73;2.93;;;10.40;99.90;;;;;;4935880;29;20887;-83
2021/05/26 01:17:52;;;;;;;5.93;3.43;;;10.40;99.90;;;;;;4935816;29;20826;-84
2021/05/26 01:20:29;;;;;;;4.37;3.17;;;10.40;99.90;;;;;;4935498;29;20424;-84
2021/05/26 01:22:59;;;;;;;4.30;3.90;;;10.40;99.90;;;;;;4935869;29;20428;-84
2021/05/26 01:25:25;;;;;;;3.70;3.27;;;10.40;99.90;;;;;;4935794;29;20414;-84
2021/05/26 01:27:51;;;;;;;4.70;3.20;;;10.40;99.90;;;;;;4935865;29;20753;-84
2021/05/26 01:30:17;;;;;;;3.37;2.33;;;10.40;99.90;;;;;;4936031;29;20678;-84
2021/05/26 01:32:47;;;;;;;4.23;3.83;;;10.50;99.90;;;;;;4935705;29;20161;-84
2021/05/26 01:35:15;;;;;;;4.27;3.10;;;10.50;99.90;;;;;;4935572;29;20415;-84
2021/05/26 01:37:42;;;;;;;5.00;4.00;;;10.50;99.90;;;;;;4918764;29;21082;-84
2021/05/26 01:40:10;;;;;;;3.23;2.00;;;10.50;99.90;;;;;;4935630;29;20781;-84
2021/05/26 01:42:36;;;;;;;5.77;3.53;;;10.50;99.90;;;;;;4918619;29;20484;-83
2021/05/26 01:45:06;;;;;;;3.30;2.60;;;10.50;99.90;;;;;;4935765;29;20410;-83
2021/05/26 01:47:33;;;;;;;4.63;3.90;;;10.50;99.90;;;;;;4935766;29;20414;-83
2021/05/26 01:49:59;;;;;;;6.07;4.33;;;10.50;99.90;;;;;;4935409;29;20422;-83
2021/05/26 01:52:24;;;;;;;7.67;4.00;;;10.50;99.90;;;;;;4935673;29;20423;-83
2021/05/26 01:54:50;;;;;;;5.63;4.20;;;10.50;99.90;;;;;;4936401;29;20183;-83
2021/05/26 01:57:16;;;;;;;5.50;4.73;;;10.50;99.90;;;;;;4939465;29;20214;-83
2021/05/26 01:59:41;;;;;;;5.07;4.20;;;10.60;99.90;;;;;;4939487;29;20200;-83
2021/05/26 02:02:07;;;;;;;9.70;4.43;;;10.50;99.90;;;;;;4939511;29;20636;-83
2021/05/26 02:04:34;;;;;;;5.50;4.30;;;10.60;99.90;;;;;;4939125;29;20174;-83
2021/05/26 02:07:08;;;;;;;6.77;5.40;;;10.60;99.90;;;;;;4939406;29;20635;-82
2021/05/26 02:09:34;;;;;;;5.47;4.90;;;10.60;99.90;;;;;;4939396;29;20450;-82
2021/05/26 02:14:45;;;;;;;6.73;5.43;;;10.60;99.90;;;;;;4939330;29;20419;-83
2021/05/26 02:17:10;;;;;;;7.93;5.07;;;10.60;99.90;;;;;;4939047;29;20470;-82
2021/05/26 02:19:36;;;;;;;5.93;5.33;;;10.70;99.90;;;;;;4938833;29;20579;-83
2021/05/26 02:22:02;;;;;;;8.47;5.23;;;10.70;99.90;;;;;;4939107;29;20629;-83
2021/05/26 02:24:27;;;;;;;7.33;6.57;;;10.60;99.90;;;;;;4939151;29;20178;-83
2021/05/26 02:26:53;;;;;;;9.00;6.37;;;10.60;99.90;;;;;;4922027;29;20191;-84
2021/05/26 02:29:19;;;;;;;10.43;7.17;;;10.60;99.90;;;;;;4938967;29;20184;-84
2021/05/26 02:31:44;;;;;;;9.53;6.90;;;10.70;99.90;;;;;;4938946;29;20618;-84
2021/05/26 02:34:10;;;;;;;6.87;5.90;;;10.70;99.90;;;;;;4938317;29;20230;-84
2021/05/26 02:36:35;;;;;;;8.07;7.17;;;10.70;99.90;;;;;;4938732;29;20209;-83
2021/05/26 02:39:01;;;;;;;7.67;6.73;;;10.70;99.90;;;;;;4938813;29;20264;-83
2021/05/26 02:41:27;;;;;;;9.03;6.50;;;10.70;99.90;;;;;;4938832;29;20207;-83
2021/05/26 02:43:52;;;;;;;9.63;8.27;;;10.70;99.90;;;;;;4938800;29;20678;-83
2021/05/26 02:46:18;;;;;;;11.47;7.70;;;10.70;99.90;;;;;;4938675;29;20178;-83
2021/05/26 02:48:43;;;;;;;8.10;6.70;;;10.70;99.90;;;;;;4938313;29;20189;-83
2021/05/26 02:51:09;;;;;;;14.17;8.30;;;10.70;99.90;;;;;;4938570;29;20258;-82
2021/05/26 02:53:34;;;;;;;9.50;7.67;;;10.70;99.90;;;;;;4938593;29;20233;-83
2021/05/26 02:56:00;;;;;;;9.63;8.40;;;10.80;99.90;;;;;;4938230;29;21159;-82
2021/05/26 02:58:26;;;;;;;9.73;8.03;;;10.70;99.90;;;;;;4938227;29;20199;-83
2021/05/26 03:00:51;;;;;;;10.33;8.13;;;10.70;99.90;;;;;;4938436;29;20704;-82
2021/05/26 03:03:17;;;;;;;9.20;7.90;;;10.70;99.90;;;;;;4938057;29;20256;-83
2021/05/26 03:05:42;;;;;;;9.67;8.73;;;10.60;99.90;;;;;;4915161;29;20186;-82
2021/05/26 03:08:08;;;;;;;10.00;8.17;;;10.70;99.90;;;;;;4938312;29;20655;-82
2021/05/26 03:10:34;;;;;;;10.00;8.73;;;10.70;99.90;;;;;;4937027;29;20206;-82
2021/05/26 03:12:59;;;;;;;9.20;8.20;;;10.60;99.90;;;;;;4938244;29;20654;-82
2021/05/26 03:15:25;;;;;;;10.17;8.90;;;10.60;99.90;;;;;;4938177;29;20182;-83
2021/05/26 03:17:51;;;;;;;9.13;8.10;;;10.70;99.90;;;;;;4937638;29;20253;-83
2021/05/26 03:20:17;;;;;;;9.87;8.70;;;10.60;99.90;;;;;;4938059;29;20187;-83
2021/05/26 03:22:43;;;;;;;10.27;8.33;;;10.60;99.90;;;;;;4938022;29;20178;-82
2021/05/26 03:25:11;;;;;;;10.77;7.27;;;10.60;99.90;;;;;;4938057;29;20458;-83
2021/05/26 03:27:39;;;;;;;7.90;6.90;;;10.60;99.90;;;;;;4937953;29;20505;-82
2021/05/26 03:30:07;;;;;;;8.77;6.37;;;10.60;99.90;;;;;;4938006;29;20911;-82
2021/05/26 03:32:34;;;;;;;9.17;7.33;;;10.60;99.90;;;;;;4920606;29;20440;-82
2021/05/26 03:35:00;;;;;;;6.87;5.83;;;10.60;99.90;;;;;;4937556;29;20485;-82
2021/05/26 03:37:25;;;;;;;7.80;6.00;;;10.60;99.90;;;;;;4937691;29;20474;-82
2021/05/26 03:39:51;;;;;;;7.17;5.13;;;10.60;99.90;;;;;;4937731;29;20429;-83
2021/05/26 03:42:17;;;;;;;7.87;5.77;;;10.60;99.90;;;;;;4937791;29;20178;-83
2021/05/26 03:44:42;;;;;;;8.00;7.20;;;10.60;99.90;;;;;;4937695;29;20174;-82
2021/05/26 03:47:08;;;;;;;8.60;6.90;;;10.60;99.90;;;;;;4937581;29;20179;-82
2021/05/26 03:49:33;;;;;;;10.63;7.33;;;10.50;99.90;;;;;;4937381;29;20202;-82
2021/05/26 03:51:59;;;;;;;8.93;7.87;;;10.60;99.90;;;;;;4937508;29;20179;-82
2021/05/26 03:54:25;;;;;;;11.83;9.33;;;10.60;99.90;;;;;;4937544;29;20211;-82
2021/05/26 03:56:50;;;;;;;11.10;9.47;;;10.60;99.90;;;;;;4937453;29;20240;-82
2021/05/26 03:59:16;;;;;;;12.00;10.17;;;10.60;99.90;;;;;;4937434;29;20174;-83
2021/05/26 04:01:42;;;;;;;12.10;10.90;;;10.70;99.90;;;;;;4937419;29;20179;-82
2021/05/26 04:04:07;;;;;;;12.43;10.67;;;10.70;99.90;;;;;;4936975;29;20175;-82
2021/05/26 04:06:34;;;;;;;12.10;10.87;;;10.70;99.90;;;;;;4937263;29;20592;-82
2021/05/26 04:09:00;;;;;;;13.20;11.40;;;10.70;99.90;;;;;;4937208;29;20654;-82
2021/05/26 04:11:26;;;;;;;13.20;10.60;;;10.70;99.90;;;;;;4937199;29;20416;-83
2021/05/26 04:13:51;;;;;;;11.90;10.03;;;10.80;99.90;;;;;;4937147;29;20414;-83
2021/05/26 04:16:17;;;;;;;14.03;10.10;;;10.70;99.90;;;;;;4937004;29;20238;-83
2021/05/26 04:18:42;;;;;;;11.27;9.67;;;10.80;99.90;;;;;;4936110;29;20539;-82
2021/05/26 04:21:08;;;;;;;14.87;10.50;;;10.80;99.90;;;;;;4936971;29;20246;-81
2021/05/26 04:23:34;;;;;;;12.60;11.30;;;10.80;99.90;;;;;;4936906;29;20723;-82
2021/05/26 04:25:59;;;;;;;11.20;9.97;;;10.80;99.90;;;;;;4936873;29;20183;-82
2021/05/26 04:28:25;;;;;;;21.07;13.70;;;10.90;99.90;;;;;;4936804;29;20178;-82
2021/05/26 04:30:51;;;;;;;12.67;11.03;;;10.90;99.90;;;;;;4936780;29;20223;-81
2021/05/26 04:33:17;;;;;;;11.83;10.17;;;11.00;99.90;;;;;;4936151;29;20876;-82
2021/05/26 04:35:43;;;;;;;12.37;10.90;;;11.00;99.90;;;;;;4936509;29;20186;-82
2021/05/26 04:38:10;;;;;;;11.47;9.50;;;11.00;99.90;;;;;;4936567;29;20225;-81
2021/05/26 04:40:35;;;;;;;14.10;11.47;;;11.00;99.90;;;;;;4936589;29;20433;-82
2021/05/26 04:43:01;;;;;;;13.27;10.13;;;11.00;99.90;;;;;;4936550;29;20522;-82
2021/05/26 04:45:26;;;;;;;12.23;10.50;;;11.10;99.90;;;;;;4936572;29;20309;-82
2021/05/26 04:47:52;;;;;;;11.83;9.47;;;11.30;99.90;;;;;;4936093;29;20226;-82
2021/05/26 04:50:18;;;;;;;10.33;9.23;;;11.40;99.90;;;;;;4936441;29;20262;-81
2021/05/26 04:52:43;;;;;;;11.23;8.93;;;11.50;99.90;;;;;;4936349;29;20177;-82
2021/05/26 04:55:10;;;;;;;13.50;9.80;;;11.60;99.90;;;;;;4936422;29;20183;-82
2021/05/26 04:57:35;;;;;;;12.37;10.67;;;11.50;99.90;;;;;;4936334;29;20213;-81
2021/05/26 05:00:02;;;;;;;9.60;8.70;;;11.40;99.90;;;;;;4936334;29;20896;-82
2021/05/26 05:02:28;;;;;;;11.70;8.80;;;11.40;99.90;;;;;;4935749;29;20206;-81
2021/05/26 05:04:53;;;;;;;13.07;8.90;;;11.40;99.90;;;;;;4935964;29;20959;-81
2021/05/26 05:07:19;;;;;;;12.07;9.17;;;11.50;99.90;;;;;;4935587;29;20548;-82
2021/05/26 05:09:45;;;;;;;11.27;9.80;;;11.60;99.90;;;;;;4935590;29;20174;-84
2021/05/26 05:12:11;;;;;;;10.83;8.50;;;11.80;99.90;;;;;;4935339;29;20222;-81
2021/05/26 05:14:37;;;;;;;9.40;7.97;;;12.00;99.90;;;;;;4935522;29;20874;-82
2021/05/26 05:17:02;;;;;;;11.63;7.90;;;12.00;99.90;;;;;;4935380;29;20211;-82
2021/05/26 05:19:28;;;;;;;17.67;8.90;;;12.00;99.90;;;;;;4934943;29;20178;-81
2021/05/26 05:21:53;;;;;;;10.77;8.87;;;12.00;99.90;;;;;;4935296;29;20542;-81
2021/05/26 05:24:20;;;;;;;9.33;8.33;;;12.00;99.90;;;;;;4935239;29;20179;-81
2021/05/26 05:26:46;;;;;;;9.53;8.40;;;11.90;99.90;;;;;;4935168;29;20280;-82
2021/05/26 05:29:12;;;;;;;13.80;10.20;;;11.80;99.90;;;;;;4934787;29;20518;-81
2021/05/26 05:31:37;;;;;;;9.50;8.60;;;11.80;99.90;;;;;;4935030;29;20499;-80
2021/05/26 05:34:06;;;;;;;11.13;9.30;;;11.80;99.90;;;;;;4917435;29;20231;-81
2021/05/26 05:36:32;;;;;;;10.27;9.17;;;11.80;99.90;;;;;;4935000;29;20207;-81
2021/05/26 05:38:57;;;;;;;12.30;8.13;;;11.80;99.90;;;;;;4934811;29;20450;-81
2021/05/26 05:41:23;;;;;;;9.60;8.70;;;11.80;99.90;;;;;;4934586;29;20212;-81
2021/05/26 05:43:48;;;;;;;9.90;7.80;;;11.90;99.90;;;;;;4934377;29;20188;-81
2021/05/26 05:46:14;;;;;;;8.73;7.57;;;12.10;99.90;;;;;;4934096;29;20573;-80
2021/05/26 05:48:40;;;;;;;9.97;8.10;;;12.20;99.90;;;;;;4933703;29;20181;-81
2021/05/26 05:51:06;;;;;;;8.33;7.37;;;12.40;99.90;;;;;;4934042;29;20644;-82
2021/05/26 05:53:31;;;;;;;8.73;7.90;;;12.60;99.90;;;;;;4934152;29;20180;-81
2021/05/26 05:55:58;;;;;;;9.87;7.73;;;12.50;99.90;;;;;;4934887;29;20765;-81
2021/05/26 05:58:25;;;;;;;8.80;7.87;;;12.50;99.90;;;;;;4934774;29;20255;-81
2021/05/26 06:00:51;;;;;;;11.10;8.27;;;12.50;99.90;;;;;;4934826;29;20424;-81
2021/05/26 06:03:17;;;;;;;10.87;9.87;;;12.50;99.90;;;;;;4934136;29;20426;-81
2021/05/26 06:05:42;;;;;;;9.87;8.70;;;12.40;99.90;;;;;;4917770;29;20428;-81
2021/05/26 06:08:08;;;;;;;10.40;8.23;;;12.30;99.90;;;;;;4934676;29;20168;-81
2021/05/26 06:10:33;;;;;;;8.93;8.03;;;12.20;99.90;;;;;;4934706;29;20184;-81
2021/05/26 06:13:00;;;;;;;11.13;7.73;;;12.20;99.90;;;;;;4934401;29;20602;-80
2021/05/26 06:15:26;;;;;;;9.00;8.10;;;12.30;99.90;;;;;;4934819;29;20198;-81
2021/05/26 06:17:51;;;;;;;9.93;8.60;;;12.40;99.90;;;;;;4934304;29;20578;-82
2021/05/26 06:20:17;;;;;;;9.07;7.70;;;12.50;99.90;;;;;;4934728;29;20178;-81
2021/05/26 06:22:45;;;;;;;8.50;7.60;;;12.60;99.90;;;;;;4934576;29;20219;-81
2021/05/26 06:25:11;;;;;;;8.90;7.30;;;12.80;99.90;;;;;;4934712;29;20483;-81
2021/05/26 06:27:38;;;;;;;9.97;8.27;;;12.80;99.90;;;;;;4934726;29;20976;-80
2021/05/26 06:30:04;;;;;;;9.90;8.90;;;12.60;99.90;;;;;;4934736;29;20498;-81
2021/05/26 06:32:32;;;;;;;10.90;8.90;;;12.40;99.90;;;;;;4916130;29;20432;-84
2021/05/26 06:34:58;;;;;;;11.20;8.30;;;12.30;99.90;;;;;;4932331;29;20451;-82
2021/05/26 06:37:23;;;;;;;9.50;8.63;;;12.30;99.90;;;;;;4934236;29;20626;-80
2021/05/26 06:39:49;;;;;;;10.40;9.20;;;12.40;99.90;;;;;;4934354;29;20180;-80
2021/05/26 06:42:14;;;;;;;9.60;8.20;;;12.40;99.90;;;;;;4936973;29;20237;-80
2021/05/26 06:44:40;;;;;;;9.10;8.20;;;12.60;99.90;;;;;;4937622;29;20180;-80
2021/05/26 06:47:06;;;;;;;10.73;9.63;;;12.70;99.90;;;;;;4937462;29;20241;-80
2021/05/26 06:49:31;;;;;;;9.43;8.63;;;12.80;99.90;;;;;;4920163;29;20180;-80
2021/05/26 06:51:57;;;;;;;11.23;9.17;;;12.60;99.90;;;;;;4937432;29;20209;-78
2021/05/26 06:54:23;;;;;;;8.03;7.33;;;12.40;99.90;;;;;;4937445;29;20636;-79
2021/05/26 06:56:49;;;;;;;9.73;7.70;;;12.20;99.90;;;;;;4937380;29;20533;-79
2021/05/26 06:59:14;;;;;;;11.20;9.70;;;12.10;99.90;;;;;;4937478;29;20188;-79
2021/05/26 07:01:40;;;;;;;7.07;6.33;;;12.00;99.90;;;;;;4920418;29;20179;-82
2021/05/26 07:04:06;;;;;;;5.70;3.90;;;11.90;99.90;;;;;;4936856;29;20271;-84
2021/05/26 07:06:32;;;;;;;6.50;3.17;;;11.70;99.90;;;;;;4937735;29;20497;-82
2021/05/26 07:08:57;;;;;;;3.63;2.17;;;11.50;99.90;;;;;;4937780;29;20188;-79
2021/05/26 07:11:23;;;;;;;1.50;0.60;;;11.30;99.90;;;;;;4937140;29;20190;-79
2021/05/26 07:13:49;;;;;;;2.60;0.87;;;11.10;99.90;;;;;;4937369;29;20187;-82
2021/05/26 07:16:14;;;;;;;2.47;1.13;;;11.00;99.90;;;;;;4937596;29;20204;-80
2021/05/26 07:18:45;;;;;;;1.50;0.50;;;10.90;99.90;;;;;;4937449;29;20190;-78
2021/05/26 07:21:11;;;;;;;2.20;0.70;;;10.80;99.90;;;;;;4937722;29;20905;-81
2021/05/26 07:23:36;;;;;;;1.47;0.60;;;10.90;99.90;;;;;;4920797;29;20435;-81
2021/05/26 07:26:02;;;;;;;2.13;1.10;;;10.90;99.90;;;;;;4937654;29;20234;-80
2021/05/26 07:28:28;;;;;;;2.70;1.10;;;11.00;99.90;;;;;;4937531;29;20660;-80
2021/05/26 07:30:53;;;;;;;1.50;0.73;;;11.10;99.90;;;;;;4920319;29;20187;-80
2021/05/26 07:33:19;;;;;;;4.03;1.40;;;11.10;99.90;;;;;;4936970;29;20229;-81
2021/05/26 07:35:44;;;;;;;3.53;1.93;;;11.20;99.90;;;;;;4937257;29;20191;-80
2021/05/26 07:38:11;;;;;;;2.70;1.60;;;11.30;99.90;;;;;;4920401;29;20218;-80
2021/05/26 07:40:37;;;;;;;3.07;1.30;;;11.20;99.90;;;;;;4937523;29;20549;-81
2021/05/26 07:43:02;;;;;;;3.43;1.70;;;11.20;99.90;;;;;;4920481;29;20433;-80
2021/05/26 07:45:28;;;;;;;2.87;1.87;;;11.20;99.90;;;;;;4937352;29;20181;-80
2021/05/26 07:47:54;;;;;;;4.10;3.10;;;11.20;99.90;;;;;;4937016;29;20552;-80
2021/05/26 07:50:19;;;;;;;2.90;2.70;;;11.20;99.90;;;;;;4937056;29;20221;-81
2021/05/26 07:52:45;;;;;;;3.93;3.13;;;11.20;99.90;;;;;;4935995;29;20183;-81
2021/05/26 07:55:11;;;;;;;3.80;2.50;;;11.30;99.90;;;;;;4937273;29;20277;-81
2021/05/26 07:57:36;;;;;;;5.53;3.20;;;11.40;99.90;;;;;;4937097;29;20214;-84
2021/05/26 08:00:05;;;;;;;7.33;3.93;;;11.40;99.90;;;;;;4936897;29;20573;-81
2021/05/26 08:02:30;;;;;;;4.90;3.80;;;11.50;99.90;;;;;;4935786;28;20253;-82
2021/05/26 08:04:56;;;;;;;5.20;4.50;;;11.60;99.90;;;;;;4934551;29;20439;-81
2021/05/26 08:07:21;;;;;;;4.40;3.60;;;11.70;99.90;;;;;;4937091;29;20561;-82
2021/05/26 08:09:47;;;;;;;11.23;7.07;;;11.70;99.90;;;;;;4937731;29;20191;-82
2021/05/26 08:12:13;;;;;;;8.10;5.90;;;11.80;99.90;;;;;;4920010;29;20191;-86
2021/05/26 08:14:40;;;;;;;8.60;7.13;;;11.80;99.90;;;;;;4929823;29;21171;-87
2021/05/26 08:17:05;;;;;;;9.33;6.97;;;11.90;99.90;;;;;;4921599;29;20483;-87
2021/05/26 08:19:32;;;;;;;10.77;9.03;;;12.10;99.90;;;;;;4924165;29;20591;-87
2021/05/26 08:21:58;;;;;;;12.03;9.07;;;12.30;99.90;;;;;;4920596;29;20175;-85
2021/05/26 08:24:24;;;;;;;11.90;10.53;;;12.50;99.90;;;;;;4918562;29;20482;-85
2021/05/26 08:26:50;;;;;;;16.37;11.50;;;12.90;99.90;;;;;;4917683;29;20429;-88
2021/05/26 08:29:16;;;;;;;13.20;11.60;;;13.20;99.90;;;;;;4917081;29;20296;-87
2021/05/26 08:31:43;;;;;;;14.70;11.00;;;13.60;99.90;;;;;;4917841;29;20426;-88
2021/05/26 08:34:08;;;;;;;15.90;10.20;;;13.70;99.90;;;;;;4917863;29;20462;-85
2021/05/26 08:36:34;;;;;;;13.40;8.93;;;13.60;99.90;;;;;;4916061;29;20469;-91
2021/05/26 08:39:00;;;;;;;16.40;10.23;;;13.40;99.90;;;;;;4924588;29;20224;-87
2021/05/26 08:41:26;;;;;;;12.97;10.97;;;13.20;99.90;;;;;;4916298;29;20180;-85
2021/05/26 08:43:52;;;;;;;14.47;10.00;;;13.00;99.90;;;;;;4916819;29;20177;-83
2021/05/26 08:46:21;;;;;;;14.43;11.43;;;12.80;99.90;;;;;;4915990;29;20424;-85
2021/05/26 08:48:47;;;;;;;13.20;9.90;;;12.80;99.90;;;;;;4916956;29;20176;-88
2021/05/26 08:51:15;;;;;;;12.50;10.43;;;12.80;99.90;;;;;;4917148;29;20933;-86
2021/05/26 08:53:41;;;;;;;14.53;10.60;;;13.00;99.90;;;;;;4933338;29;20428;-86
2021/05/26 08:56:06;;;;;;;11.60;10.50;;;13.40;99.90;;;;;;4935164;29;20419;-86
2021/05/26 08:58:42;;;;;;;13.73;10.73;;;13.70;99.90;;;;;;4919319;29;20554;-86
2021/05/26 09:01:08;;;;;;;11.17;7.83;;;15.50;99.90;;;;;;4936650;29;20788;-85
2021/05/26 09:03:35;;;;;;;8.10;6.93;;;17.40;1.00;;;;;;4935598;29;20849;-86
2021/05/26 09:06:02;;;;;;;6.53;5.83;;;19.30;1.00;;;;;;4936056;29;20414;-85
2021/05/26 09:08:28;;;;;;;9.67;5.07;;;20.20;1.00;;;;;;4933117;29;20504;-84
2021/05/26 09:11:02;;;;;;;6.93;5.23;;;19.80;1.00;;;;;;4936063;29;20516;-84
2021/05/26 09:13:39;;;;;;;5.73;5.20;;;20.30;99.90;;;;;;4933456;29;20212;-83
2021/05/26 09:16:23;;;;;;;8.03;6.53;;;19.20;99.90;;;;;;4917193;29;20928;-86
2021/05/26 09:19:03;;;;;;;6.67;5.93;;;19.10;1.00;;;;;;4915533;29;20441;-86
2021/05/26 09:21:46;;;;;;;7.03;4.83;;;18.90;1.00;;;;;;4900724;29;21041;-89
2021/05/26 09:24:21;;;;;;;6.83;4.47;;;19.40;1.00;;;;;;4916338;29;20448;-86
2021/05/26 09:27:16;;;;;;;5.03;3.70;;;20.20;99.90;;;;;;4917473;29;20506;-88
2021/05/26 09:29:50;;;;;;;7.70;5.17;;;19.70;99.90;;;;;;4933078;29;20457;-92
2021/05/26 09:32:25;;;;;;;6.93;4.33;;;18.50;99.90;;;;;;4920463;29;20425;-90
2021/05/26 09:34:52;;;;;;;6.57;3.43;;;17.50;1.00;;;;;;4915535;29;20474;-85
2021/05/26 09:37:20;;;;;;;8.93;4.50;;;17.00;1.00;;;;;;4916924;29;20466;-87
2021/05/26 09:40:03;;;;;;;5.50;4.33;;;16.70;1.00;;;;;;4929217;29;20432;-85
2021/05/26 09:42:34;;;;;;;8.00;3.80;;;16.10;1.00;;;;;;4916763;29;20528;-86
2021/05/26 09:45:06;;;;;;;5.20;4.27;;;15.50;1.00;;;;;;4922697;29;20472;-86
2021/05/26 09:47:36;;;;;;;6.17;3.10;;;15.10;1.00;;;;;;4935071;29;20473;-85
2021/05/26 09:50:23;;;;;;;5.17;3.30;;;14.60;1.00;;;;;;4918249;29;20854;-85
2021/05/26 09:52:59;;;;;;;6.37;4.70;;;14.00;36.30;;;;;;4934682;29;20768;-85
2021/05/26 09:55:28;;;;;;;7.23;5.63;;;13.50;93.20;;;;;;4935473;29;20413;-85
2021/05/26 09:57:54;;;;;;;5.37;3.93;;;13.60;99.90;;;;;;4935455;29;20480;-85
2021/05/26 10:00:20;;;;;;;8.40;5.47;;;13.70;99.90;;;;;;4935487;29;20422;-85
2021/05/26 10:02:47;;;;;;;5.57;4.73;;;14.20;99.90;;;;;;4918249;29;20436;-86
2021/05/26 10:05:15;;;;;;;6.80;4.03;;;15.30;99.90;;;;;;4935474;29;20464;-84
2021/05/26 10:07:41;;;;;;;6.40;3.70;;;16.80;49.90;;;;;;4935438;29;20479;-85
2021/05/26 10:10:10;;;;;;;5.30;3.90;;;17.50;1.00;;;;;;4935437;29;20463;-86
2021/05/26 10:12:39;;;;;;;7.90;4.23;;;17.70;1.00;;;;;;4935437;29;20429;-85
2021/05/26 10:15:09;;;;;;;7.43;3.83;;;18.10;1.00;;;;;;4935471;29;20937;-86
2021/05/26 10:17:38;;;;;;;5.17;3.40;;;17.80;1.00;;;;;;4938458;29;21012;-85
2021/05/26 10:20:12;;;;;;;9.50;4.30;;;17.20;1.00;;;;;;4939223;29;20419;-86
2021/05/26 10:22:39;;;;;;;6.97;4.20;;;16.70;1.00;;;;;;4922035;29;20956;-86
2021/05/26 10:25:06;;;;;;;5.40;3.80;;;16.50;1.00;;;;;;4939091;29;20552;-87
2021/05/26 10:27:35;;;;;;;5.53;3.40;;;16.30;1.00;;;;;;4939101;29;20440;-87
2021/05/26 10:30:03;;;;;;;3.83;3.30;;;16.50;1.00;;;;;;4939075;29;20414;-86
2021/05/26 10:32:46;;;;;;;6.40;3.50;;;17.80;1.00;;;;;;4938492;29;20428;-85
2021/05/26 10:35:11;;;;;;;11.17;3.10;;;18.30;1.00;;;;;;4938881;29;20420;-86
2021/05/26 10:37:40;;;;;;;6.77;3.10;;;17.90;1.00;;;;;;4921752;29;20806;-85
2021/05/26 10:40:31;;;;;;;8.23;3.97;;;17.10;1.00;;;;;;4921572;29;20180;-86
2021/05/26 10:43:12;;;;;;;3.00;2.40;;;16.20;1.00;;;;;;4936382;29;20432;-87
2021/05/26 10:45:38;;;;;;;6.87;2.60;;;15.90;2.00;;;;;;4938572;29;20436;-85
2021/05/26 10:48:04;;;;;;;5.10;2.97;;;16.40;1.00;;;;;;4938289;29;20437;-86
2021/05/26 10:50:45;;;;;;;4.57;2.97;;;17.80;1.00;;;;;;4937956;29;20547;-86
2021/05/26 10:53:11;;;;;;;3.40;2.40;;;20.90;1.00;;;;;;4937012;29;20434;-85
2021/05/26 10:55:48;;;;;;;4.77;1.20;;;23.90;1.00;;;;;;4938460;29;20523;-86
2021/05/26 10:58:24;;;;;;;5.33;1.47;;;23.40;99.90;;;;;;4938520;29;20304;-87
2021/05/26 11:01:11;;;;;;;2.27;1.30;;;22.20;1.00;;;;;;4938520;29;20416;-86
2021/05/26 11:03:44;;;;;;;5.20;1.43;;;21.30;1.00;;;;;;4938197;29;20432;-85
2021/05/26 11:06:13;;;;;;;2.70;1.40;;;23.50;1.00;;;;;;4938446;29;20479;-86
2021/05/26 11:08:43;;;;;;;2.40;1.20;;;26.10;1.00;;;;;;4938258;29;20431;-86
2021/05/26 11:11:24;;;;;;;6.60;1.37;;;;;;;;;;4938345;29;20463;-83
2021/05/26 11:13:59;;;;;;;3.80;1.57;;;30.60;1.00;;;;;;4921186;29;20421;-83
2021/05/26 11:16:45;;;;;;;4.50;1.33;;;31.90;99.90;;;;;;4937762;29;20786;-83
2021/05/26 11:19:26;;;;;;;2.87;0.77;;;31.70;60.60;;;;;;4938252;29;20428;-85
2021/05/26 11:21:56;;;;;;;4.00;1.80;;;;;;;;;;4921094;29;20460;-85
2021/05/26 11:24:23;;;;;;;2.97;1.83;;;;;;;;;;4938200;29;20464;-85
2021/05/26 11:26:49;;;;;;;5.37;1.97;;;;;;;;;;4937783;29;20410;-84
2021/05/26 11:29:34;;;;;;;1.80;1.33;;;;;;;;;;4937918;29;20405;-86
2021/05/26 11:32:11;;;;;;;2.07;1.67;;;;;;;;;;4937610;29;20406;-85
2021/05/26 11:34:38;;;;;;;4.03;2.37;;;27.80;99.90;;;;;;4937661;29;20464;-82
2021/05/26 11:37:04;;;;;;;1.63;1.47;;;26.00;76.70;;;;;;4937732;29;20882;-84
2021/05/26 11:39:32;;;;;;;2.33;1.70;;;24.00;1.00;;;;;;4920771;29;20449;-85
2021/05/26 11:42:14;;;;;;;3.20;2.37;;;22.30;37.90;;;;;;4937734;29;20416;-85
2021/05/26 11:44:44;;;;;;;3.77;2.23;;;;;;;;;;4937816;29;20427;-84
2021/05/26 11:47:10;;;;;;;3.80;2.60;;;;;;;;;;4920211;29;20502;-84
2021/05/26 11:49:40;;;;;;;2.77;1.97;;;;;;;;;;4937530;29;20428;-84
2021/05/26 11:52:10;;;;;;;1.97;0.90;;;;;;;;;;4937565;29;20893;-84
2021/05/26 11:54:52;;;;;;;5.67;2.10;;;;;;;;;;4937400;29;20906;-84
2021/05/26 11:57:18;;;;;;;4.57;1.93;;;;;;;;;;4937367;29;20477;-85
2021/05/26 11:59:53;;;;;;;3.03;1.80;;;;;;;;;;4937554;29;20416;-86
2021/05/26 12:02:19;;;;;;;5.73;2.00;;;;;;;;;;4937059;29;20427;-86
2021/05/26 12:04:45;;;;;;;4.17;1.93;;;;;;;;;;4920597;29;20429;-86
2021/05/26 12:07:11;;;;;;;2.90;2.13;;;16.60;1.00;;;;;;4920424;29;20499;-84
2021/05/26 12:09:37;;;;;;;3.47;1.90;;;16.50;1.00;;;;;;4937452;29;20425;-84
2021/05/26 12:12:17;;;;;;;5.60;2.30;;;;;;;;;;4937265;29;20464;-86
2021/05/26 12:14:45;;;;;;;4.27;3.83;;;15.90;1.00;;;;;;4937153;29;20255;-84
2021/05/26 12:17:14;;;;;;;6.10;4.27;;;;;;;;;;4936838;29;20476;-86
2021/05/26 12:19:40;;;;;;;5.27;3.27;;;15.30;10.70;;;;;;4937129;29;20904;-87
2021/05/26 12:22:26;;;;;;;5.00;2.27;;;;;;;;;;4937051;29;20431;-88
2021/05/26 12:24:52;;;;;;;5.33;3.07;;;;;;;;;;4937062;29;20810;-86
2021/05/26 12:27:31;;;;;;;4.00;2.87;;;;;;;;;;4936955;29;20490;-88
2021/05/26 12:30:10;;;;;;;5.00;3.23;;;;;;;;;;4919868;29;20947;-86
2021/05/26 12:32:36;;;;;;;5.13;3.30;;;15.60;46.50;;;;;;4936414;29;20431;-88
2021/05/26 12:35:01;;;;;;;4.47;3.90;;;15.60;39.40;;;;;;4936941;29;20431;-86
2021/05/26 12:37:40;;;;;;;4.90;3.40;;;;;;;;;;4936723;29;20230;-86
2021/05/26 12:40:06;;;;;;;4.20;3.20;;;15.50;1.00;;;;;;4936272;29;20537;-86
2021/05/26 12:42:40;;;;;;;5.23;3.50;;;16.30;11.60;;;;;;4936738;29;20428;-87
2021/05/26 12:45:38;;;;;;;5.60;3.70;;;16.90;1.00;;;;;;4936623;29;20492;-88
2021/05/26 12:48:14;;;;;;;4.97;3.67;;;17.10;1.00;;;;;;4936347;29;20462;-87
2021/05/26 12:50:44;;;;;;;4.50;3.87;;;17.60;1.00;;;;;;4919458;29;20425;-87
2021/05/26 12:53:11;;;;;;;8.53;3.77;;;18.40;1.00;;;;;;4919519;29;20811;-85
2021/05/26 12:55:37;;;;;;;7.23;2.97;;;20.80;1.00;;;;;;4936305;29;20998;-85
2021/05/26 12:58:08;;;;;;;4.77;3.40;;;22.20;95.10;;;;;;4936367;29;20561;-86
2021/05/26 13:00:35;;;;;;;5.53;3.90;;;22.40;99.90;;;;;;4936359;29;20823;-83